createdAt,value
2019-04-21T00:01:06.702Z,12.33
2019-04-21T00:06:25.073Z,13.73
2019-04-21T00:11:29.817Z,13.93
2019-04-21T00:16:17.189Z,13.97
2019-04-21T00:21:26.574Z,13.17
2019-04-21T00:26:40.215Z,13.80
2019-04-21T00:31:38.140Z,12.70
2019-04-21T00:36:40.600Z,14.53
2019-04-21T00:41:54.690Z,13.37
2019-04-21T00:46:53.216Z,12.87
2019-04-21T00:52:42.643Z,13.37
2019-04-21T00:57:32.387Z,13.07
2019-04-21T01:02:41.621Z,12.70
2019-04-21T01:07:39.815Z,13.07
2019-04-21T01:12:41.834Z,13.80
2019-04-21T01:17:50.497Z,12.97
2019-04-21T01:22:28.125Z,10.53
2019-04-21T01:27:50.735Z,9.10
2019-04-21T01:32:55.762Z,11.37
2019-04-21T01:38:00.131Z,9.90
2019-04-21T01:43:02.833Z,9.73
2019-04-21T01:48:19.602Z,10.27
2019-04-21T01:53:38.208Z,9.30
2019-04-21T01:58:39.819Z,10.43
2019-04-21T02:08:53.213Z,10.30
2019-04-21T02:14:03.907Z,9.90
2019-04-21T02:18:58.870Z,11.07
2019-04-21T02:24:15.274Z,10.70
2019-04-21T02:29:17.101Z,9.73
2019-04-21T02:34:23.532Z,9.73
2019-04-21T02:44:37.439Z,10.37
2019-04-21T02:54:55.179Z,9.97
2019-04-21T03:00:00.135Z,12.20
2019-04-21T03:05:17.757Z,14.23
2019-04-21T03:10:10.761Z,11.50
2019-04-21T03:25:36.908Z,11.47
2019-04-21T03:30:55.926Z,11.77
2019-04-21T03:40:32.917Z,12.23
2019-04-21T03:45:44.355Z,13.07
2019-04-21T03:50:42.801Z,13.63
2019-04-21T04:01:00.459Z,14.07
2019-04-21T04:06:08.032Z,15.73
2019-04-21T04:11:12.766Z,15.93
2019-04-21T04:26:13.348Z,15.80
2019-04-21T04:36:33.860Z,15.73
2019-04-21T04:41:35.028Z,17.33
2019-04-21T04:46:35.378Z,18.07
2019-04-21T04:51:43.858Z,17.20
2019-04-21T04:56:40.824Z,19.10
2019-04-21T05:01:51.481Z,17.90
2019-04-21T05:11:50.843Z,18.43
2019-04-21T05:16:55.511Z,21.37
2019-04-21T05:21:59.960Z,19.97
2019-04-21T05:26:49.330Z,20.53
2019-04-21T05:32:04.970Z,23.30
2019-04-21T05:37:14.146Z,20.87
2019-04-21T05:42:04.456Z,23.00
2019-04-21T05:52:22.570Z,23.67
2019-04-21T05:57:35.992Z,23.00
2019-04-21T06:02:36.916Z,22.20
2019-04-21T06:07:39.460Z,21.10
2019-04-21T06:12:50.376Z,20.70
2019-04-21T06:17:49.310Z,21.90
2019-04-21T06:22:56.641Z,22.70
2019-04-21T06:28:00.104Z,19.93
2019-04-21T06:33:20.464Z,23.10
2019-04-21T06:38:03.644Z,25.00
2019-04-21T06:43:18.418Z,24.93
2019-04-21T06:48:12.238Z,21.17
2019-04-21T06:53:20.692Z,21.33
2019-04-21T06:58:18.374Z,22.67
2019-04-21T07:03:34.739Z,19.47
2019-04-21T07:08:35.298Z,19.90
2019-04-21T07:13:34.547Z,18.13
2019-04-21T07:18:47.436Z,17.80
2019-04-21T07:23:47.281Z,18.30
2019-04-21T07:28:49.887Z,17.43
2019-04-21T07:33:57.599Z,17.50
2019-04-21T07:38:50.386Z,18.57
2019-04-21T07:43:57.278Z,17.87
2019-04-21T07:49:07.924Z,16.40
2019-04-21T07:54:17.267Z,19.40
2019-04-21T07:59:23.953Z,16.27
2019-04-21T08:04:38.010Z,18.47
2019-04-21T08:09:29.462Z,17.40
2019-04-21T08:14:30.002Z,19.50
2019-04-21T08:19:31.044Z,18.63
2019-04-21T08:24:35.225Z,16.20
2019-04-21T08:34:55.185Z,19.20
2019-04-21T08:39:58.090Z,18.87
2019-04-21T08:44:52.657Z,19.63
2019-04-21T08:49:54.107Z,22.20
2019-04-21T08:55:22.348Z,18.03
2019-04-21T09:00:45.511Z,19.70
2019-04-21T09:05:45.560Z,17.37
2019-04-21T09:10:48.536Z,18.17
2019-04-21T09:15:47.887Z,17.53
2019-04-21T09:20:58.458Z,17.07
2019-04-21T09:25:57.425Z,17.80
2019-04-21T09:30:50.824Z,16.17
2019-04-21T09:35:58.810Z,15.67
2019-04-21T09:40:55.859Z,14.33
2019-04-21T09:45:56.770Z,11.93
2019-04-21T09:50:59.628Z,14.23
2019-04-21T09:56:05.069Z,13.00
2019-04-21T10:01:17.499Z,12.50
2019-04-21T10:06:11.169Z,12.23
2019-04-21T10:11:14.152Z,12.40
2019-04-21T10:16:26.741Z,10.83
2019-04-21T10:21:29.409Z,11.90
2019-04-21T10:26:31.733Z,10.00
2019-04-21T10:31:34.550Z,7.03
2019-04-21T10:36:37.204Z,6.47
2019-04-21T10:41:39.327Z,4.43
2019-04-21T10:46:42.519Z,4.43
2019-04-21T10:51:44.355Z,4.60
2019-04-21T10:56:47.366Z,4.60
2019-04-21T11:01:50.457Z,4.77
2019-04-21T11:06:52.795Z,4.33
2019-04-21T11:11:55.898Z,4.27
2019-04-21T11:16:58.561Z,4.80
2019-04-21T11:22:01.036Z,4.10
2019-04-21T11:27:04.534Z,5.00
2019-04-21T11:32:07.215Z,4.13
2019-04-21T11:37:12.325Z,4.17
2019-04-21T11:42:17.513Z,4.00
2019-04-21T11:47:22.634Z,4.47
2019-04-21T11:52:25.041Z,4.27
2019-04-21T11:57:30.740Z,4.67
2019-04-21T12:02:30.990Z,4.63
2019-04-21T12:07:35.308Z,4.10
2019-04-21T12:12:43.352Z,4.33
2019-04-21T12:17:47.827Z,4.23
2019-04-21T12:22:50.068Z,3.67
2019-04-21T12:27:52.143Z,3.50
2019-04-21T12:33:02.247Z,4.90
2019-04-21T12:38:04.753Z,4.10
2019-04-21T12:43:06.687Z,4.47
2019-04-21T12:48:08.522Z,5.00
2019-04-21T12:53:12.590Z,3.60
2019-04-21T12:58:15.185Z,3.80
2019-04-21T13:03:17.420Z,3.70
2019-04-21T13:08:19.754Z,3.63
2019-04-21T13:13:22.096Z,4.10
2019-04-21T13:18:23.850Z,4.37
2019-04-21T13:23:27.112Z,4.87
2019-04-21T13:28:28.809Z,4.30
2019-04-21T13:33:31.240Z,4.50
2019-04-21T13:38:40.531Z,4.63
2019-04-21T13:43:39.086Z,3.90
2019-04-21T13:48:42.372Z,3.93
2019-04-21T13:53:44.226Z,4.10
2019-04-21T13:58:46.292Z,4.33
2019-04-21T14:03:49.082Z,4.03
2019-04-21T14:08:52.545Z,4.43
2019-04-21T14:13:54.529Z,4.10
2019-04-21T14:18:57.179Z,3.20
2019-04-21T14:23:59.526Z,3.00
2019-04-21T14:29:01.652Z,5.80
2019-04-21T14:34:03.948Z,3.23
2019-04-21T14:39:10.411Z,3.00
2019-04-21T14:44:13.204Z,2.90
2019-04-21T14:49:23.643Z,2.47
2019-04-21T14:54:31.438Z,2.83
2019-04-21T14:59:33.368Z,2.50
2019-04-21T15:04:35.687Z,3.07
2019-04-21T15:09:39.653Z,2.43
2019-04-21T15:14:42.232Z,2.73
2019-04-21T15:19:50.860Z,2.60
2019-04-21T15:24:49.898Z,2.60
2019-04-21T15:29:53.006Z,2.50
2019-04-21T15:34:56.048Z,2.60
2019-04-21T15:39:58.540Z,2.13
2019-04-21T15:45:04.100Z,2.10
2019-04-21T15:50:11.921Z,2.83
2019-04-21T15:55:16.737Z,2.60
2019-04-21T16:00:38.452Z,2.40
2019-04-21T16:05:40.622Z,2.90
2019-04-21T16:10:52.644Z,2.30
2019-04-21T16:15:50.556Z,4.00
2019-04-21T16:20:53.692Z,2.73
2019-04-21T16:25:56.920Z,3.80
2019-04-21T16:30:58.787Z,3.37
2019-04-21T16:36:01.981Z,3.40
2019-04-21T16:41:07.023Z,3.50
2019-04-21T16:46:08.861Z,3.93
2019-04-21T16:51:10.751Z,3.23
2019-04-21T16:56:17.220Z,3.70
2019-04-21T17:01:29.169Z,2.67
2019-04-21T17:06:31.183Z,3.53
2019-04-21T17:11:37.240Z,4.20
2019-04-21T17:17:03.241Z,4.07
2019-04-21T17:21:41.662Z,3.93
2019-04-21T17:26:44.681Z,10.27
2019-04-21T17:31:47.753Z,4.40
2019-04-21T17:36:50.947Z,4.80
2019-04-21T17:42:05.307Z,6.27
2019-04-21T17:47:02.037Z,6.57
2019-04-21T17:52:16.273Z,6.37
2019-04-21T17:57:36.692Z,5.80
2019-04-21T18:02:41.707Z,7.00
2019-04-21T18:07:42.146Z,5.93
2019-04-21T18:12:39.808Z,6.33
2019-04-21T18:17:32.498Z,6.53
2019-04-21T18:22:47.915Z,6.07
2019-04-21T18:27:52.415Z,5.60
2019-04-21T18:32:57.035Z,4.77
2019-04-21T18:38:08.035Z,6.23
2019-04-21T18:43:45.387Z,6.97
2019-04-21T18:48:24.575Z,5.97
2019-04-21T18:53:44.815Z,7.13
2019-04-21T18:58:32.692Z,9.00
2019-04-21T19:03:41.042Z,6.10
2019-04-21T19:08:59.952Z,16.80
2019-04-21T19:14:20.955Z,12.17
2019-04-21T19:24:28.173Z,27.67
2019-04-21T19:29:24.037Z,14.03
2019-04-21T19:34:16.227Z,10.93
2019-04-21T19:39:23.299Z,10.53
2019-04-21T19:44:34.073Z,28.43
2019-04-21T19:49:43.689Z,20.57
2019-04-21T19:54:30.286Z,24.07
2019-04-21T19:59:34.628Z,24.17
2019-04-21T20:04:38.516Z,20.27
2019-04-21T20:09:50.808Z,19.50
2019-04-21T20:14:59.604Z,18.57
2019-04-21T20:19:42.348Z,16.30
2019-04-21T20:24:49.904Z,14.93
2019-04-21T20:30:08.878Z,13.13
2019-04-21T20:35:35.203Z,14.73
2019-04-21T20:40:02.161Z,14.53
2019-04-21T20:45:31.935Z,14.37
2019-04-21T20:50:22.160Z,14.10
2019-04-21T20:55:21.702Z,16.03
2019-04-21T21:00:31.800Z,18.27
2019-04-21T21:05:31.656Z,18.00
2019-04-21T21:10:38.838Z,16.97
2019-04-21T21:15:51.348Z,16.83
2019-04-21T21:20:49.779Z,18.97
2019-04-21T21:25:51.146Z,20.00
2019-04-21T21:30:55.845Z,19.97
2019-04-21T21:36:03.169Z,19.17
2019-04-21T21:40:57.223Z,14.30
2019-04-21T21:45:53.581Z,19.10
2019-04-21T21:51:04.428Z,18.17
2019-04-21T21:55:56.448Z,16.83
2019-04-21T22:01:02.662Z,16.07
2019-04-21T22:06:08.456Z,16.67
2019-04-21T22:11:07.245Z,15.93
2019-04-21T22:16:14.439Z,15.90
2019-04-21T22:21:34.668Z,16.63
2019-04-21T22:26:18.868Z,15.87
2019-04-21T22:31:25.296Z,15.33
2019-04-21T22:36:35.509Z,14.40
2019-04-21T22:41:34.402Z,14.57
2019-04-21T22:46:32.687Z,12.57
2019-04-21T22:51:38.351Z,12.53
2019-04-21T22:56:49.488Z,12.10
2019-04-21T23:01:47.446Z,12.03
2019-04-21T23:06:48.830Z,12.27
2019-04-21T23:11:52.962Z,10.77
2019-04-21T23:17:04.432Z,10.27
2019-04-21T23:22:16.147Z,10.83
2019-04-21T23:27:15.573Z,9.30
2019-04-21T23:32:19.923Z,8.00
2019-04-21T23:37:16.302Z,8.87
2019-04-21T23:42:22.543Z,8.77
2019-04-21T23:47:29.235Z,10.40
2019-04-21T23:52:21.934Z,11.30
2019-04-21T23:57:31.461Z,9.87
